sensor_id;sensor_type;location;lat;lon;timestamp;pressure;altitude;pressure_sealevel;temperature;humidity
40708;BME280;26392;42.696;23.350;2023-05-09T00:00:25;95607.81;;;13.29;100.00
40708;BME280;26392;42.696;23.350;2023-05-09T00:02:51;95607.63;;;13.46;100.00
40708;BME280;26392;42.696;23.350;2023-05-09T00:05:19;95595.28;;;13.38;100.00
40708;BME280;26392;42.696;23.350;2023-05-09T00:07:45;95617.81;;;13.51;100.00
40708;BME280;26392;42.696;23.350;2023-05-09T00:10:11;95608.25;;;13.53;100.00
40708;BME280;26392;42.696;23.350;2023-05-09T00:12:36;95606.59;;;13.57;100.00
40708;BME280;26392;42.696;23.350;2023-05-09T00:15:02;95599.75;;;13.55;100.00
40708;BME280;26392;42.696;23.350;2023-05-09T00:17:27;95605.22;;;13.55;100.00
40708;BME280;26392;42.696;23.350;2023-05-09T00:19:53;95609.34;;;13.57;100.00
40708;BME280;26392;42.696;23.350;2023-05-09T00:22:20;95595.09;;;13.50;100.00
40708;BME280;26392;42.696;23.350;2023-05-09T00:24:48;95600.81;;;13.49;100.00
40708;BME280;26392;42.696;23.350;2023-05-09T00:27:14;95591.19;;;13.41;100.00
40708;BME280;26392;42.696;23.350;2023-05-09T00:29:40;95589.00;;;13.38;100.00
40708;BME280;26392;42.696;23.350;2023-05-09T00:32:06;95584.03;;;13.35;100.00
40708;BME280;26392;42.696;23.350;2023-05-09T00:34:31;95589.25;;;13.31;100.00
40708;BME280;26392;42.696;23.350;2023-05-09T00:36:57;95596.66;;;12.98;100.00
40708;BME280;26392;42.696;23.350;2023-05-09T00:39:22;95593.34;;;12.96;100.00
40708;BME280;26392;42.696;23.350;2023-05-09T00:41:48;95595.88;;;13.03;100.00
40708;BME280;26392;42.696;23.350;2023-05-09T00:44:13;95591.59;;;13.17;100.00
40708;BME280;26392;42.696;23.350;2023-05-09T00:46:39;95594.78;;;13.04;100.00
40708;BME280;26392;42.696;23.350;2023-05-09T00:49:04;95589.38;;;13.14;100.00
40708;BME280;26392;42.696;23.350;2023-05-09T00:51:31;95591.84;;;13.11;100.00
40708;BME280;26392;42.696;23.350;2023-05-09T00:53:57;95580.91;;;13.16;100.00
40708;BME280;26392;42.696;23.350;2023-05-09T00:56:23;95582.28;;;13.18;100.00
40708;BME280;26392;42.696;23.350;2023-05-09T00:58:48;95584.47;;;13.16;100.00
40708;BME280;26392;42.696;23.350;2023-05-09T01:01:14;95588.31;;;13.20;100.00
40708;BME280;26392;42.696;23.350;2023-05-09T01:03:41;95584.25;;;13.23;100.00
40708;BME280;26392;42.696;23.350;2023-05-09T01:06:16;95585.06;;;13.24;100.00
40708;BME280;26392;42.696;23.350;2023-05-09T01:09:09;95585.88;;;13.24;100.00
40708;BME280;26392;42.696;23.350;2023-05-09T01:11:43;95585.13;;;13.29;100.00
40708;BME280;26392;42.696;23.350;2023-05-09T01:17:19;95581.34;;;13.40;100.00
40708;BME280;26392;42.696;23.350;2023-05-09T01:20:12;95581.38;;;13.45;100.00
40708;BME280;26392;42.696;23.350;2023-05-09T01:22:44;95575.91;;;13.45;100.00
40708;BME280;26392;42.696;23.350;2023-05-09T01:27:56;95586.88;;;13.50;100.00
40708;BME280;26392;42.696;23.350;2023-05-09T01:30:24;95584.69;;;13.47;100.00
40708;BME280;26392;42.696;23.350;2023-05-09T01:32:51;95591.53;;;13.55;100.00
40708;BME280;26392;42.696;23.350;2023-05-09T01:35:20;95593.72;;;13.58;100.00
40708;BME280;26392;42.696;23.350;2023-05-09T01:37:48;95589.91;;;13.54;100.00
40708;BME280;26392;42.696;23.350;2023-05-09T01:40:16;95594.53;;;13.48;100.00
40708;BME280;26392;42.696;23.350;2023-05-09T01:43:06;95584.34;;;13.38;100.00
40708;BME280;26392;42.696;23.350;2023-05-09T01:45:35;95583.13;;;13.24;100.00
40708;BME280;26392;42.696;23.350;2023-05-09T01:48:03;95586.22;;;13.28;100.00
40708;BME280;26392;42.696;23.350;2023-05-09T01:50:31;95590.66;;;13.39;100.00
40708;BME280;26392;42.696;23.350;2023-05-09T01:52:58;95597.22;;;13.43;100.00
40708;BME280;26392;42.696;23.350;2023-05-09T01:55:28;95589.00;;;13.38;100.00
40708;BME280;26392;42.696;23.350;2023-05-09T01:57:56;95604.06;;;13.40;100.00
40708;BME280;26392;42.696;23.350;2023-05-09T02:00:23;95596.91;;;13.34;100.00
40708;BME280;26392;42.696;23.350;2023-05-09T02:02:50;95598.31;;;13.37;100.00
40708;BME280;26392;42.696;23.350;2023-05-09T02:05:17;95595.81;;;13.35;100.00
40708;BME280;26392;42.696;23.350;2023-05-09T02:07:44;95600.47;;;13.35;100.00
40708;BME280;26392;42.696;23.350;2023-05-09T02:10:11;95594.78;;;13.41;100.00
40708;BME280;26392;42.696;23.350;2023-05-09T02:12:37;95588.75;;;13.45;100.00
40708;BME280;26392;42.696;23.350;2023-05-09T02:15:04;95590.94;;;13.42;100.00
40708;BME280;26392;42.696;23.350;2023-05-09T02:17:30;95591.50;;;13.45;100.00
40708;BME280;26392;42.696;23.350;2023-05-09T02:19:56;95590.31;;;13.30;100.00
40708;BME280;26392;42.696;23.350;2023-05-09T02:22:22;95588.25;;;13.10;100.00
40708;BME280;26392;42.696;23.350;2023-05-09T02:24:47;95594.31;;;13.17;100.00
40708;BME280;26392;42.696;23.350;2023-05-09T02:27:13;95586.16;;;13.23;100.00
40708;BME280;26392;42.696;23.350;2023-05-09T02:29:46;95592.44;;;13.23;100.00
40708;BME280;26392;42.696;23.350;2023-05-09T02:32:19;95585.34;;;13.22;100.00
40708;BME280;26392;42.696;23.350;2023-05-09T02:34:46;95597.63;;;13.25;100.00
40708;BME280;26392;42.696;23.350;2023-05-09T02:37:14;95601.22;;;13.25;100.00
40708;BME280;26392;42.696;23.350;2023-05-09T02:39:39;95601.25;;;13.30;100.00
40708;BME280;26392;42.696;23.350;2023-05-09T02:42:09;95591.69;;;13.33;100.00
40708;BME280;26392;42.696;23.350;2023-05-09T02:44:35;95602.91;;;13.31;100.00
40708;BME280;26392;42.696;23.350;2023-05-09T02:47:02;95588.56;;;13.19;100.00
40708;BME280;26392;42.696;23.350;2023-05-09T02:49:28;95598.13;;;13.11;100.00
40708;BME280;26392;42.696;23.350;2023-05-09T02:51:53;95594.78;;;13.04;100.00
40708;BME280;26392;42.696;23.350;2023-05-09T02:54:19;95601.28;;;12.93;100.00
40708;BME280;26392;42.696;23.350;2023-05-09T02:56:44;95602.09;;;12.88;100.00
40708;BME280;26392;42.696;23.350;2023-05-09T02:59:10;95603.38;;;12.81;100.00
40708;BME280;26392;42.696;23.350;2023-05-09T03:01:35;95601.38;;;12.71;100.00
40708;BME280;26392;42.696;23.350;2023-05-09T03:04:00;95589.63;;;12.70;100.00
40708;BME280;26392;42.696;23.350;2023-05-09T03:06:26;95610.09;;;12.68;100.00
40708;BME280;26392;42.696;23.350;2023-05-09T03:08:51;95609.63;;;12.76;100.00
40708;BME280;26392;42.696;23.350;2023-05-09T03:11:17;95611.63;;;12.91;100.00
40708;BME280;26392;42.696;23.350;2023-05-09T03:13:42;95624.53;;;12.95;100.00
40708;BME280;26392;42.696;23.350;2023-05-09T03:16:07;95626.94;;;12.87;100.00
40708;BME280;26392;42.696;23.350;2023-05-09T03:18:33;95631.34;;;12.93;100.00
40708;BME280;26392;42.696;23.350;2023-05-09T03:20:58;95634.91;;;12.88;100.00
40708;BME280;26392;42.696;23.350;2023-05-09T03:23:24;95640.47;;;12.71;100.00
40708;BME280;26392;42.696;23.350;2023-05-09T03:25:49;95648.53;;;12.83;100.00
40708;BME280;26392;42.696;23.350;2023-05-09T03:28:14;95649.38;;;12.89;100.00
40708;BME280;26392;42.696;23.350;2023-05-09T03:30:40;95626.91;;;12.82;100.00
40708;BME280;26392;42.696;23.350;2023-05-09T03:33:06;95640.09;;;12.90;100.00
40708;BME280;26392;42.696;23.350;2023-05-09T03:35:32;95657.13;;;12.97;100.00
40708;BME280;26392;42.696;23.350;2023-05-09T03:37:57;95653.31;;;13.03;100.00
40708;BME280;26392;42.696;23.350;2023-05-09T03:40:22;95654.13;;;13.04;100.00
40708;BME280;26392;42.696;23.350;2023-05-09T03:42:48;95659.97;;;12.80;100.00
40708;BME280;26392;42.696;23.350;2023-05-09T03:45:13;95663.72;;;12.74;100.00
40708;BME280;26392;42.696;23.350;2023-05-09T03:47:38;95665.53;;;12.58;100.00
40708;BME280;26392;42.696;23.350;2023-05-09T03:50:05;95657.31;;;12.58;100.00
40708;BME280;26392;42.696;23.350;2023-05-09T03:52:30;95658.25;;;12.74;100.00
40708;BME280;26392;42.696;23.350;2023-05-09T03:54:56;95651.03;;;12.90;100.00
40708;BME280;26392;42.696;23.350;2023-05-09T03:57:21;95636.63;;;12.99;100.00
40708;BME280;26392;42.696;23.350;2023-05-09T03:59:46;95653.31;;;13.03;100.00
40708;BME280;26392;42.696;23.350;2023-05-09T04:02:12;95654.50;;;13.17;100.00
40708;BME280;26392;42.696;23.350;2023-05-09T04:04:38;95654.63;;;13.33;100.00
40708;BME280;26392;42.696;23.350;2023-05-09T04:07:03;95649.81;;;13.45;100.00
40708;BME280;26392;42.696;23.350;2023-05-09T04:09:29;95650.94;;;13.54;100.00
40708;BME280;26392;42.696;23.350;2023-05-09T04:11:54;95655.44;;;13.76;100.00
40708;BME280;26392;42.696;23.350;2023-05-09T04:14:20;95658.03;;;14.13;100.00
40708;BME280;26392;42.696;23.350;2023-05-09T04:16:45;95666.34;;;14.49;100.00
40708;BME280;26392;42.696;23.350;2023-05-09T04:19:11;95661.75;;;14.60;100.00
40708;BME280;26392;42.696;23.350;2023-05-09T04:21:36;95664.19;;;14.51;100.00
40708;BME280;26392;42.696;23.350;2023-05-09T04:24:02;95662.44;;;14.24;100.00
40708;BME280;26392;42.696;23.350;2023-05-09T04:26:27;95669.31;;;14.27;100.00
40708;BME280;26392;42.696;23.350;2023-05-09T04:28:54;95670.41;;;14.26;100.00
40708;BME280;26392;42.696;23.350;2023-05-09T04:31:19;95664.34;;;14.14;100.00
40708;BME280;26392;42.696;23.350;2023-05-09T04:33:45;95667.88;;;14.04;100.00
40708;BME280;26392;42.696;23.350;2023-05-09T04:36:10;95654.75;;;14.06;100.00
40708;BME280;26392;42.696;23.350;2023-05-09T04:38:36;95661.00;;;14.01;100.00
40708;BME280;26392;42.696;23.350;2023-05-09T04:41:01;95667.50;;;13.80;100.00
40708;BME280;26392;42.696;23.350;2023-05-09T04:43:27;95670.72;;;13.72;100.00
40708;BME280;26392;42.696;23.350;2023-05-09T04:45:52;95671.41;;;13.99;100.00
40708;BME280;26392;42.696;23.350;2023-05-09T04:48:18;95659.38;;;14.05;100.00
40708;BME280;26392;42.696;23.350;2023-05-09T04:50:43;95666.78;;;14.05;100.00
40708;BME280;26392;42.696;23.350;2023-05-09T04:53:09;95670.09;;;14.22;100.00
40708;BME280;26392;42.696;23.350;2023-05-09T04:55:35;95665.47;;;14.28;100.00
40708;BME280;26392;42.696;23.350;2023-05-09T04:58:00;95658.34;;;14.27;100.00
40708;BME280;26392;42.696;23.350;2023-05-09T05:00:26;95670.94;;;14.28;100.00
40708;BME280;26392;42.696;23.350;2023-05-09T05:02:51;95667.66;;;14.21;100.00
40708;BME280;26392;42.696;23.350;2023-05-09T05:05:16;95663.31;;;14.35;100.00
40708;BME280;26392;42.696;23.350;2023-05-09T05:07:42;95661.41;;;14.41;100.00
40708;BME280;26392;42.696;23.350;2023-05-09T05:10:08;95664.13;;;14.36;100.00
40708;BME280;26392;42.696;23.350;2023-05-09T05:12:33;95655.88;;;14.20;100.00
40708;BME280;26392;42.696;23.350;2023-05-09T05:14:58;95666.56;;;14.27;100.00
40708;BME280;26392;42.696;23.350;2023-05-09T05:17:24;95662.50;;;14.40;100.00
40708;BME280;26392;42.696;23.350;2023-05-09T05:19:50;95662.78;;;14.48;100.00
40708;BME280;26392;42.696;23.350;2023-05-09T05:22:15;95659.56;;;14.77;100.00
40708;BME280;26392;42.696;23.350;2023-05-09T05:24:41;95659.56;;;14.97;100.00
40708;BME280;26392;42.696;23.350;2023-05-09T05:27:06;95661.47;;;15.17;100.00
40708;BME280;26392;42.696;23.350;2023-05-09T05:29:31;95669.72;;;15.17;100.00
40708;BME280;26392;42.696;23.350;2023-05-09T05:31:57;95669.72;;;15.17;100.00
40708;BME280;26392;42.696;23.350;2023-05-09T05:34:22;95664.47;;;15.26;100.00
40708;BME280;26392;42.696;23.350;2023-05-09T05:36:48;95671.91;;;15.26;100.00
40708;BME280;26392;42.696;23.350;2023-05-09T05:39:13;95672.72;;;15.41;100.00
40708;BME280;26392;42.696;23.350;2023-05-09T05:41:38;95667.22;;;15.41;100.00
40708;BME280;26392;42.696;23.350;2023-05-09T05:44:04;95677.63;;;15.55;100.00
40708;BME280;26392;42.696;23.350;2023-05-09T05:46:29;95669.38;;;15.60;100.00
40708;BME280;26392;42.696;23.350;2023-05-09T05:48:55;95679.28;;;15.61;100.00
40708;BME280;26392;42.696;23.350;2023-05-09T05:51:20;95672.09;;;15.85;100.00
40708;BME280;26392;42.696;23.350;2023-05-09T05:53:46;95675.38;;;15.87;100.00
40708;BME280;26392;42.696;23.350;2023-05-09T05:56:11;95668.78;;;15.94;100.00
40708;BME280;26392;42.696;23.350;2023-05-09T05:58:37;95674.22;;;16.04;100.00
40708;BME280;26392;42.696;23.350;2023-05-09T06:01:02;95678.06;;;16.03;100.00
40708;BME280;26392;42.696;23.350;2023-05-09T06:03:28;95672.84;;;16.06;100.00
40708;BME280;26392;42.696;23.350;2023-05-09T06:05:53;95675.22;;;16.28;100.00
40708;BME280;26392;42.696;23.350;2023-05-09T06:08:20;95668.53;;;16.45;100.00
40708;BME280;26392;42.696;23.350;2023-05-09T06:10:45;95664.63;;;16.56;100.00
40708;BME280;26392;42.696;23.350;2023-05-09T06:13:10;95670.91;;;16.62;100.00
40708;BME280;26392;42.696;23.350;2023-05-09T06:15:36;95670.38;;;16.54;100.00
40708;BME280;26392;42.696;23.350;2023-05-09T06:18:01;95665.25;;;16.38;100.00
40708;BME280;26392;42.696;23.350;2023-05-09T06:20:27;95666.56;;;15.96;100.00
40708;BME280;26392;42.696;23.350;2023-05-09T06:22:52;95671.25;;;15.90;100.00
40708;BME280;26392;42.696;23.350;2023-05-09T06:25:18;95663.63;;;15.72;100.00
40708;BME280;26392;42.696;23.350;2023-05-09T06:27:43;95670.53;;;15.43;100.00
40708;BME280;26392;42.696;23.350;2023-05-09T06:30:09;95669.66;;;15.53;100.00
40708;BME280;26392;42.696;23.350;2023-05-09T06:32:34;95662.50;;;15.62;100.00
40708;BME280;26392;42.696;23.350;2023-05-09T06:35:00;95665.00;;;15.69;100.00
40708;BME280;26392;42.696;23.350;2023-05-09T06:37:26;95664.16;;;15.74;100.00
40708;BME280;26392;42.696;23.350;2023-05-09T06:39:51;95660.59;;;15.63;100.00
40708;BME280;26392;42.696;23.350;2023-05-09T06:42:16;95663.63;;;15.51;100.00
40708;BME280;26392;42.696;23.350;2023-05-09T06:44:42;95668.28;;;15.61;100.00
40708;BME280;26392;42.696;23.350;2023-05-09T06:47:08;95633.72;;;15.55;100.00
40708;BME280;26392;42.696;23.350;2023-05-09T06:49:33;95669.91;;;15.62;100.00
40708;BME280;26392;42.696;23.350;2023-05-09T06:51:59;95668.28;;;15.61;100.00
40708;BME280;26392;42.696;23.350;2023-05-09T06:54:24;95669.91;;;15.67;100.00
40708;BME280;26392;42.696;23.350;2023-05-09T06:56:50;95664.16;;;15.74;100.00
40708;BME280;26392;42.696;23.350;2023-05-09T06:59:16;95662.72;;;15.92;100.00
40708;BME280;26392;42.696;23.350;2023-05-09T07:01:41;95659.75;;;15.78;100.00
40708;BME280;26392;42.696;23.350;2023-05-09T07:04:07;95643.25;;;15.67;100.00
40708;BME280;26392;42.696;23.350;2023-05-09T07:06:32;95661.38;;;15.89;100.00
40708;BME280;26392;42.696;23.350;2023-05-09T07:08:58;95656.31;;;16.17;100.00
40708;BME280;26392;42.696;23.350;2023-05-09T07:11:23;95653.25;;;16.23;98.32
40708;BME280;26392;42.696;23.350;2023-05-09T07:13:49;95665.75;;;16.50;100.00
40708;BME280;26392;42.696;23.350;2023-05-09T07:16:14;95649.91;;;16.76;97.16
40708;BME280;26392;42.696;23.350;2023-05-09T07:18:41;95654.19;;;16.97;94.19
40708;BME280;26392;42.696;23.350;2023-05-09T07:21:07;95657.53;;;16.89;92.54
40708;BME280;26392;42.696;23.350;2023-05-09T07:23:32;95663.28;;;16.93;93.25
40708;BME280;26392;42.696;23.350;2023-05-09T07:25:58;95658.50;;;16.69;94.48
40708;BME280;26392;42.696;23.350;2023-05-09T07:28:24;95666.06;;;16.88;94.32
40708;BME280;26392;42.696;23.350;2023-05-09T07:30:50;95664.47;;;16.82;93.37
40708;BME280;26392;42.696;23.350;2023-05-09T07:33:15;95655.09;;;16.83;93.48
40708;BME280;26392;42.696;23.350;2023-05-09T07:35:41;95654.22;;;16.92;91.70
40708;BME280;26392;42.696;23.350;2023-05-09T07:38:06;95660.09;;;16.81;94.12
40708;BME280;26392;42.696;23.350;2023-05-09T07:40:32;95668.53;;;16.94;91.94
40708;BME280;26392;42.696;23.350;2023-05-09T07:43:01;95664.47;;;17.16;91.00
40708;BME280;26392;42.696;23.350;2023-05-09T07:45:26;95665.84;;;17.18;89.40
40708;BME280;26392;42.696;23.350;2023-05-09T07:47:52;95664.09;;;17.28;85.78
40708;BME280;26392;42.696;23.350;2023-05-09T07:50:17;95668.25;;;17.25;84.75
40708;BME280;26392;42.696;23.350;2023-05-09T07:52:43;95658.34;;;17.24;86.12
40708;BME280;26392;42.696;23.350;2023-05-09T07:55:08;95670.09;;;17.35;84.46
40708;BME280;26392;42.696;23.350;2023-05-09T07:57:33;95657.72;;;17.03;84.99
40708;BME280;26392;42.696;23.350;2023-05-09T07:59:59;95671.72;;;17.07;85.36
40708;BME280;26392;42.696;23.350;2023-05-09T08:02:24;95667.56;;;17.09;86.38
40708;BME280;26392;42.696;23.350;2023-05-09T08:04:50;95653.06;;;16.98;86.99
40708;BME280;26392;42.696;23.350;2023-05-09T08:07:15;95650.16;;;17.14;85.85
40708;BME280;26392;42.696;23.350;2023-05-09T08:09:41;95651.91;;;17.05;86.62
40708;BME280;26392;42.696;23.350;2023-05-09T08:12:07;95662.84;;;16.75;88.47
40708;BME280;26392;42.696;23.350;2023-05-09T08:14:32;95661.25;;;16.69;89.59
40708;BME280;26392;42.696;23.350;2023-05-09T08:16:57;95665.66;;;16.65;90.79
40708;BME280;26392;42.696;23.350;2023-05-09T08:19:23;95660.50;;;16.53;90.17
40708;BME280;26392;42.696;23.350;2023-05-09T08:21:51;95664.09;;;16.49;89.42
40708;BME280;26392;42.696;23.350;2023-05-09T08:24:16;95663.94;;;16.30;90.91
40708;BME280;26392;42.696;23.350;2023-05-09T08:26:41;95662.00;;;16.36;90.26
40708;BME280;26392;42.696;23.350;2023-05-09T08:29:08;95666.22;;;16.62;90.74
40708;BME280;26392;42.696;23.350;2023-05-09T08:31:33;95662.16;;;16.94;88.84
40708;BME280;26392;42.696;23.350;2023-05-09T08:33:59;95669.16;;;16.76;86.99
40708;BME280;26392;42.696;23.350;2023-05-09T08:36:25;95655.97;;;16.73;88.03
40708;BME280;26392;42.696;23.350;2023-05-09T08:38:50;95669.00;;;16.57;88.44
40708;BME280;26392;42.696;23.350;2023-05-09T08:41:16;95669.38;;;15.75;96.08
40708;BME280;26392;42.696;23.350;2023-05-09T08:43:41;95661.06;;;15.91;96.65
40708;BME280;26392;42.696;23.350;2023-05-09T08:46:09;95666.84;;;15.94;95.60
40708;BME280;26392;42.696;23.350;2023-05-09T08:48:35;95665.22;;;15.88;90.11
40708;BME280;26392;42.696;23.350;2023-05-09T08:51:04;95662.78;;;15.61;92.87
40708;BME280;26392;42.696;23.350;2023-05-09T08:53:30;95663.75;;;16.11;91.30
40708;BME280;26392;42.696;23.350;2023-05-09T08:55:58;95652.81;;;15.96;87.79
40708;BME280;26392;42.696;23.350;2023-05-09T08:58:24;95654.84;;;15.70;89.79
40708;BME280;26392;42.696;23.350;2023-05-09T09:00:50;95656.19;;;15.67;91.23
40708;BME280;26392;42.696;23.350;2023-05-09T09:03:15;95656.94;;;15.98;92.63
40708;BME280;26392;42.696;23.350;2023-05-09T09:05:41;95669.88;;;15.93;88.87
40708;BME280;26392;42.696;23.350;2023-05-09T09:08:09;95659.78;;;15.52;88.63
40708;BME280;26392;42.696;23.350;2023-05-09T09:10:39;95631.22;;;15.53;89.26
40708;BME280;26392;42.696;23.350;2023-05-09T09:13:05;95664.69;;;15.65;89.99
40708;BME280;26392;42.696;23.350;2023-05-09T09:15:35;95657.84;;;15.73;89.60
40708;BME280;26392;42.696;23.350;2023-05-09T09:18:07;95648.00;;;15.41;90.30
40708;BME280;26392;42.696;23.350;2023-05-09T09:20:36;95659.50;;;15.49;90.83
40708;BME280;26392;42.696;23.350;2023-05-09T09:23:07;95656.25;;;15.26;90.27
40708;BME280;26392;42.696;23.350;2023-05-09T09:25:35;95664.22;;;14.87;92.74
40708;BME280;26392;42.696;23.350;2023-05-09T09:28:00;95662.03;;;14.94;93.27
40708;BME280;26392;42.696;23.350;2023-05-09T09:30:26;95662.28;;;15.33;94.33
40708;BME280;26392;42.696;23.350;2023-05-09T09:32:51;95646.53;;;15.85;94.17
40708;BME280;26392;42.696;23.350;2023-05-09T09:35:17;95659.56;;;16.68;91.47
40708;BME280;26392;42.696;23.350;2023-05-09T09:37:42;95653.31;;;16.58;83.39
40708;BME280;26392;42.696;23.350;2023-05-09T09:40:09;95647.28;;;17.00;85.83
40708;BME280;26392;42.696;23.350;2023-05-09T09:42:47;95654.13;;;17.61;81.60
40708;BME280;26392;42.696;23.350;2023-05-09T09:45:15;95659.13;;;18.12;79.20
40708;BME280;26392;42.696;23.350;2023-05-09T09:47:42;95646.00;;;18.04;72.91
40708;BME280;26392;42.696;23.350;2023-05-09T09:50:11;95644.22;;;17.89;75.22
40708;BME280;26392;42.696;23.350;2023-05-09T09:52:47;95646.09;;;18.18;74.83
40708;BME280;26392;42.696;23.350;2023-05-09T09:55:13;95654.97;;;18.33;71.71
40708;BME280;26392;42.696;23.350;2023-05-09T09:57:38;95647.81;;;18.70;69.79
40708;BME280;26392;42.696;23.350;2023-05-09T10:00:06;95657.63;;;19.00;67.62
40708;BME280;26392;42.696;23.350;2023-05-09T10:02:32;95654.66;;;18.78;68.04
40708;BME280;26392;42.696;23.350;2023-05-09T10:05:07;95653.66;;;18.69;68.32
40708;BME280;26392;42.696;23.350;2023-05-09T10:07:34;95655.00;;;18.52;67.30
40708;BME280;26392;42.696;23.350;2023-05-09T10:10:00;95647.81;;;18.32;68.82
40708;BME280;26392;42.696;23.350;2023-05-09T10:12:33;95649.34;;;18.20;70.22
40708;BME280;26392;42.696;23.350;2023-05-09T10:15:02;95632.38;;;17.88;71.62
40708;BME280;26392;42.696;23.350;2023-05-09T10:17:28;95619.09;;;17.66;73.46
40708;BME280;26392;42.696;23.350;2023-05-09T10:19:55;95631.44;;;17.98;72.98
40708;BME280;26392;42.696;23.350;2023-05-09T10:22:22;95633.50;;;17.87;73.03
40708;BME280;26392;42.696;23.350;2023-05-09T10:25:01;95640.09;;;18.10;72.66
40708;BME280;26392;42.696;23.350;2023-05-09T10:27:29;95633.34;;;18.22;73.04
40708;BME280;26392;42.696;23.350;2023-05-09T10:30:01;95634.56;;;18.72;68.95
40708;BME280;26392;42.696;23.350;2023-05-09T10:33:07;95635.69;;;18.52;70.29
40708;BME280;26392;42.696;23.350;2023-05-09T10:35:45;95629.94;;;19.06;68.83
40708;BME280;26392;42.696;23.350;2023-05-09T10:38:11;95633.00;;;19.37;63.94
40708;BME280;26392;42.696;23.350;2023-05-09T10:40:39;95631.78;;;19.57;63.79
40708;BME280;26392;42.696;23.350;2023-05-09T10:43:05;95628.38;;;19.79;63.33
40708;BME280;26392;42.696;23.350;2023-05-09T10:45:32;95630.25;;;19.18;63.39
40708;BME280;26392;42.696;23.350;2023-05-09T10:47:58;95635.84;;;19.32;62.45
40708;BME280;26392;42.696;23.350;2023-05-09T10:50:26;95621.09;;;19.22;62.51
40708;BME280;26392;42.696;23.350;2023-05-09T10:55:47;95639.69;;;19.17;65.75
40708;BME280;26392;42.696;23.350;2023-05-09T10:58:34;95634.06;;;18.89;65.27
40708;BME280;26392;42.696;23.350;2023-05-09T11:01:05;95641.19;;;18.90;66.86
40708;BME280;26392;42.696;23.350;2023-05-09T11:03:53;95632.41;;;18.69;66.20
40708;BME280;26392;42.696;23.350;2023-05-09T11:12:17;95635.31;;;18.97;68.22
40708;BME280;26392;42.696;23.350;2023-05-09T11:17:28;95635.88;;;18.80;67.14
40708;BME280;26392;42.696;23.350;2023-05-09T11:19:59;95642.31;;;19.08;66.99
40708;BME280;26392;42.696;23.350;2023-05-09T11:22:41;95642.28;;;19.27;64.13
40708;BME280;26392;42.696;23.350;2023-05-09T11:25:11;95648.75;;;19.36;64.17
40708;BME280;26392;42.696;23.350;2023-05-09T11:27:49;95644.06;;;19.51;63.03
40708;BME280;26392;42.696;23.350;2023-05-09T11:30:19;95637.88;;;19.26;62.72
40708;BME280;26392;42.696;23.350;2023-05-09T11:32:45;95644.50;;;19.58;62.62
40708;BME280;26392;42.696;23.350;2023-05-09T11:35:16;95640.78;;;19.81;61.00
40708;BME280;26392;42.696;23.350;2023-05-09T11:37:49;95644.53;;;19.72;60.68
40708;BME280;26392;42.696;23.350;2023-05-09T11:40:16;95626.75;;;19.92;60.22
40708;BME280;26392;42.696;23.350;2023-05-09T11:42:43;95632.28;;;20.05;59.93
40708;BME280;26392;42.696;23.350;2023-05-09T11:45:10;95637.81;;;19.78;59.10
40708;BME280;26392;42.696;23.350;2023-05-09T11:47:36;95631.00;;;19.23;61.68
40708;BME280;26392;42.696;23.350;2023-05-09T11:50:05;95638.97;;;19.58;62.15
40708;BME280;26392;42.696;23.350;2023-05-09T11:52:32;95632.41;;;19.54;60.77
40708;BME280;26392;42.696;23.350;2023-05-09T11:54:58;95617.44;;;19.27;61.68
40708;BME280;26392;42.696;23.350;2023-05-09T11:57:24;95637.28;;;18.77;63.20
40708;BME280;26392;42.696;23.350;2023-05-09T11:59:49;95621.66;;;18.68;64.31
40708;BME280;26392;42.696;23.350;2023-05-09T12:02:15;95632.78;;;18.44;65.07
40708;BME280;26392;42.696;23.350;2023-05-09T12:04:40;95633.22;;;18.70;65.22
40708;BME280;26392;42.696;23.350;2023-05-09T12:07:06;95625.97;;;18.36;65.70
40708;BME280;26392;42.696;23.350;2023-05-09T12:09:33;95632.41;;;18.50;64.85
40708;BME280;26392;42.696;23.350;2023-05-09T12:12:08;95638.28;;;19.00;64.52
40708;BME280;26392;42.696;23.350;2023-05-09T12:14:35;95633.56;;;19.20;63.41
40708;BME280;26392;42.696;23.350;2023-05-09T12:17:01;95633.59;;;19.34;63.24
40708;BME280;26392;42.696;23.350;2023-05-09T12:19:26;95637.56;;;18.95;64.39
40708;BME280;26392;42.696;23.350;2023-05-09T12:21:56;95632.25;;;18.61;65.24
40708;BME280;26392;42.696;23.350;2023-05-09T12:24:23;95637.94;;;18.07;68.38
40708;BME280;26392;42.696;23.350;2023-05-09T12:26:49;95625.94;;;18.17;67.33
40708;BME280;26392;42.696;23.350;2023-05-09T12:29:14;95625.88;;;17.79;69.75
40708;BME280;26392;42.696;23.350;2023-05-09T12:31:41;95638.97;;;17.93;70.48
40708;BME280;26392;42.696;23.350;2023-05-09T12:34:07;95636.88;;;17.50;72.42
40708;BME280;26392;42.696;23.350;2023-05-09T12:36:34;95633.84;;;17.52;72.97
40708;BME280;26392;42.696;23.350;2023-05-09T12:39:01;95628.66;;;16.87;75.95
40708;BME280;26392;42.696;23.350;2023-05-09T12:41:27;95620.09;;;16.88;76.31
40708;BME280;26392;42.696;23.350;2023-05-09T12:43:54;95630.38;;;17.12;77.61
40708;BME280;26392;42.696;23.350;2023-05-09T12:46:20;95636.22;;;17.05;77.36
40708;BME280;26392;42.696;23.350;2023-05-09T12:48:46;95624.53;;;17.18;75.54
40708;BME280;26392;42.696;23.350;2023-05-09T12:51:17;95628.91;;;16.90;76.32
40708;BME280;26392;42.696;23.350;2023-05-09T12:53:44;95623.03;;;16.63;79.03
40708;BME280;26392;42.696;23.350;2023-05-09T12:56:14;95630.72;;;16.61;80.64
40708;BME280;26392;42.696;23.350;2023-05-09T12:58:47;95616.13;;;16.65;79.96
40708;BME280;26392;42.696;23.350;2023-05-09T13:01:14;95620.25;;;16.68;79.93